createdAt,value
2023-01-08T00:02:03.910Z,15.17
2023-01-08T00:04:30.897Z,15.07
2023-01-08T00:06:57.903Z,14.60
2023-01-08T00:09:24.915Z,13.70
2023-01-08T00:11:51.894Z,16.47
2023-01-08T00:14:18.961Z,15.60
2023-01-08T00:16:46.072Z,14.27
2023-01-08T00:19:13.634Z,14.10
2023-01-08T00:21:40.664Z,14.83
2023-01-08T00:24:07.822Z,15.30
2023-01-08T00:26:34.862Z,16.43
2023-01-08T00:29:01.861Z,14.80
2023-01-08T00:31:28.960Z,12.77
2023-01-08T00:33:55.994Z,13.33
2023-01-08T00:36:23.005Z,13.40
2023-01-08T00:38:50.224Z,13.33
2023-01-08T00:41:17.679Z,11.77
2023-01-08T00:43:44.700Z,13.50
2023-01-08T00:46:11.855Z,12.13
2023-01-08T00:48:39.194Z,14.80
2023-01-08T00:51:08.322Z,13.10
2023-01-08T00:53:35.980Z,11.87
2023-01-08T00:56:05.076Z,14.37
2023-01-08T00:58:32.197Z,13.50
2023-01-08T01:00:59.567Z,12.57
2023-01-08T01:03:26.783Z,12.50
2023-01-08T01:06:04.835Z,13.53
2023-01-08T01:08:32.079Z,14.63
2023-01-08T01:10:59.107Z,11.23
2023-01-08T01:13:26.187Z,11.93
2023-01-08T01:16:00.389Z,12.80
2023-01-08T01:18:27.980Z,10.37
2023-01-08T01:20:55.326Z,12.00
2023-01-08T01:23:22.271Z,11.80
2023-01-08T01:25:49.260Z,13.67
2023-01-08T01:28:16.456Z,13.73
2023-01-08T01:30:43.667Z,11.37
2023-01-08T01:33:10.663Z,14.90
2023-01-08T01:35:37.719Z,11.63
2023-01-08T01:38:04.686Z,11.83
2023-01-08T01:40:31.673Z,11.57
2023-01-08T01:42:58.661Z,9.60
2023-01-08T01:45:28.862Z,13.67
2023-01-08T01:48:03.988Z,14.70
2023-01-08T01:50:36.917Z,12.30
2023-01-08T01:53:14.788Z,9.97
2023-01-08T01:55:43.764Z,12.73
2023-01-08T01:58:17.242Z,11.07
2023-01-08T02:00:44.941Z,11.60
2023-01-08T02:03:14.301Z,11.83
2023-01-08T02:05:59.386Z,10.67
2023-01-08T02:08:44.652Z,8.90
2023-01-08T02:11:17.910Z,9.97
2023-01-08T02:13:55.466Z,10.53
2023-01-08T02:16:45.921Z,10.93
2023-01-08T02:20:05.430Z,11.57
2023-01-08T02:22:40.412Z,11.30
2023-01-08T02:25:54.723Z,12.57
2023-01-08T02:28:22.873Z,12.53
2023-01-08T02:30:50.251Z,12.00
2023-01-08T02:33:17.273Z,10.83
2023-01-08T02:35:55.873Z,13.80
2023-01-08T02:38:24.352Z,9.90
2023-01-08T02:41:04.662Z,9.50
2023-01-08T02:43:46.092Z,10.70
2023-01-08T02:46:23.618Z,11.77
2023-01-08T02:48:57.180Z,12.47
2023-01-08T02:51:43.263Z,9.43
2023-01-08T02:54:18.063Z,11.47
2023-01-08T02:56:49.890Z,11.10
2023-01-08T02:59:19.580Z,10.77
2023-01-08T03:01:47.465Z,10.20
2023-01-08T03:04:19.016Z,11.83
2023-01-08T03:06:46.820Z,11.20
2023-01-08T03:09:15.788Z,10.87
2023-01-08T03:11:58.617Z,11.50
2023-01-08T03:14:33.907Z,11.57
2023-01-08T03:17:28.888Z,11.27
2023-01-08T03:20:01.791Z,11.27
2023-01-08T03:22:33.309Z,11.17
2023-01-08T03:25:03.199Z,12.97
2023-01-08T03:27:33.556Z,12.20
2023-01-08T03:30:00.726Z,13.37
2023-01-08T03:32:31.203Z,10.43
2023-01-08T03:35:00.748Z,9.77
2023-01-08T03:37:34.546Z,10.70
2023-01-08T03:40:08.198Z,10.83
2023-01-08T03:42:35.321Z,10.10
2023-01-08T03:45:03.115Z,9.47
2023-01-08T03:47:33.051Z,10.37
2023-01-08T03:50:08.300Z,7.63
2023-01-08T03:52:35.329Z,9.27
2023-01-08T03:55:02.444Z,9.40
2023-01-08T03:57:30.677Z,9.93
2023-01-08T03:59:57.683Z,8.87
2023-01-08T04:02:24.806Z,9.20
2023-01-08T04:04:51.940Z,8.97
2023-01-08T04:07:18.900Z,9.93
2023-01-08T04:09:45.967Z,9.43
2023-01-08T04:12:13.290Z,12.37
2023-01-08T04:14:40.310Z,8.93
2023-01-08T04:17:07.331Z,8.30
2023-01-08T04:19:34.347Z,9.00
2023-01-08T04:22:01.295Z,8.33
2023-01-08T04:24:28.259Z,9.13
2023-01-08T04:26:55.246Z,9.60
2023-01-08T04:29:22.258Z,8.20
2023-01-08T04:31:49.241Z,10.10
2023-01-08T04:34:16.225Z,7.53
2023-01-08T04:36:43.261Z,9.60
2023-01-08T04:39:11.851Z,8.23
2023-01-08T04:41:38.868Z,10.20
2023-01-08T04:44:05.850Z,8.67
2023-01-08T04:46:32.872Z,7.60
2023-01-08T04:48:59.861Z,6.27
2023-01-08T04:51:26.908Z,6.90
2023-01-08T04:53:53.925Z,8.13
2023-01-08T04:56:20.965Z,10.37
2023-01-08T04:58:48.059Z,7.50
2023-01-08T05:01:26.136Z,7.73
2023-01-08T05:04:02.214Z,7.77
2023-01-08T05:06:30.737Z,7.20
2023-01-08T05:08:58.348Z,8.77
2023-01-08T05:11:25.752Z,8.60
2023-01-08T05:13:53.643Z,8.80
2023-01-08T05:16:21.440Z,7.60
2023-01-08T05:18:49.136Z,9.23
2023-01-08T05:21:16.571Z,6.83
2023-01-08T05:23:46.858Z,6.43
2023-01-08T05:26:14.627Z,9.30
2023-01-08T05:28:41.668Z,6.90
2023-01-08T05:31:09.298Z,7.93
2023-01-08T05:33:36.323Z,9.70
2023-01-08T05:36:11.100Z,7.37
2023-01-08T05:38:38.763Z,6.93
2023-01-08T05:41:06.992Z,8.60
2023-01-08T05:43:34.645Z,8.57
2023-01-08T05:46:03.147Z,7.03
2023-01-08T05:48:31.986Z,8.30
2023-01-08T05:50:58.942Z,7.80
2023-01-08T05:53:26.018Z,9.03
2023-01-08T05:55:52.975Z,8.27
2023-01-08T05:58:20.073Z,7.80
2023-01-08T06:00:47.122Z,9.03
2023-01-08T06:03:14.137Z,7.80
2023-01-08T06:05:41.204Z,8.30
2023-01-08T06:08:08.811Z,8.63
2023-01-08T06:10:38.221Z,8.77
2023-01-08T06:13:09.655Z,9.33
2023-01-08T06:15:40.217Z,8.63
2023-01-08T06:18:07.481Z,8.33
2023-01-08T06:20:39.403Z,10.00
2023-01-08T06:23:06.389Z,8.10
2023-01-08T06:25:33.389Z,9.10
2023-01-08T06:28:00.487Z,8.97
2023-01-08T06:30:27.502Z,7.80
2023-01-08T06:32:58.874Z,10.37
2023-01-08T06:35:27.111Z,10.30
2023-01-08T06:37:57.516Z,8.57
2023-01-08T06:40:24.825Z,9.00
2023-01-08T06:42:51.772Z,8.87
2023-01-08T06:45:18.941Z,8.60
2023-01-08T06:47:46.026Z,8.07
2023-01-08T06:50:13.051Z,7.73
2023-01-08T06:52:40.086Z,7.73
2023-01-08T06:55:07.382Z,8.47
2023-01-08T06:57:34.376Z,9.43
2023-01-08T07:00:01.332Z,10.97
2023-01-08T07:02:31.491Z,9.90
2023-01-08T07:04:58.632Z,9.33
2023-01-08T07:07:25.602Z,8.47
2023-01-08T07:09:52.555Z,8.90
2023-01-08T07:12:19.538Z,8.10
2023-01-08T07:14:46.575Z,9.93
2023-01-08T07:17:13.548Z,10.83
2023-01-08T07:19:43.555Z,10.20
2023-01-08T07:22:10.523Z,8.70
2023-01-08T07:24:37.513Z,10.63
2023-01-08T07:27:04.519Z,11.03
2023-01-08T07:29:31.510Z,9.77
2023-01-08T07:31:58.495Z,11.77
2023-01-08T07:34:25.517Z,9.13
2023-01-08T07:36:52.525Z,11.17
2023-01-08T07:39:19.508Z,11.03
2023-01-08T07:41:46.596Z,10.73
2023-01-08T07:44:13.675Z,13.17
2023-01-08T07:46:40.757Z,11.07
2023-01-08T07:49:08.006Z,11.27
2023-01-08T07:51:35.109Z,12.73
2023-01-08T07:54:02.080Z,11.33
2023-01-08T07:56:29.111Z,11.30
2023-01-08T07:58:56.664Z,9.43
2023-01-08T08:01:24.277Z,9.97
2023-01-08T08:03:51.285Z,10.47
2023-01-08T08:06:18.385Z,10.20
2023-01-08T08:08:45.700Z,10.17
2023-01-08T08:11:12.940Z,10.40
2023-01-08T08:13:44.869Z,13.97
2023-01-08T08:16:12.947Z,12.30
2023-01-08T08:18:40.123Z,11.33
2023-01-08T08:21:07.600Z,13.17
2023-01-08T08:23:36.599Z,8.77
2023-01-08T08:26:04.729Z,13.60
2023-01-08T08:28:31.690Z,8.93
2023-01-08T08:30:58.747Z,13.33
2023-01-08T08:33:25.788Z,9.00
2023-01-08T08:35:52.742Z,10.93
2023-01-08T08:38:20.780Z,11.27
2023-01-08T08:40:48.511Z,10.93
2023-01-08T08:43:15.516Z,11.80
2023-01-08T08:45:42.492Z,11.23
2023-01-08T08:48:09.504Z,10.50
2023-01-08T08:50:36.475Z,15.23
2023-01-08T08:53:05.426Z,9.80
2023-01-08T08:55:33.460Z,9.80
2023-01-08T08:58:06.214Z,10.27
2023-01-08T09:00:33.354Z,9.97
2023-01-08T09:03:00.560Z,10.37
2023-01-08T09:05:27.793Z,11.03
2023-01-08T09:07:54.753Z,13.03
2023-01-08T09:10:23.121Z,13.73
2023-01-08T09:12:50.300Z,11.73
2023-01-08T09:15:17.426Z,9.83
2023-01-08T09:17:44.442Z,10.30
2023-01-08T09:20:12.289Z,11.47
2023-01-08T09:22:39.285Z,13.67
2023-01-08T09:25:06.456Z,12.97
2023-01-08T09:27:33.423Z,12.30
2023-01-08T09:30:00.423Z,13.90
2023-01-08T09:32:27.460Z,14.13
2023-01-08T09:34:54.442Z,12.23
2023-01-08T09:37:23.401Z,15.17
2023-01-08T09:39:57.670Z,12.70
2023-01-08T09:42:31.866Z,12.23
2023-01-08T09:45:01.961Z,10.77
2023-01-08T09:47:39.565Z,13.40
2023-01-08T09:50:13.539Z,12.25
2023-01-08T09:52:43.472Z,14.83
2023-01-08T09:55:14.478Z,11.77
2023-01-08T09:57:42.158Z,12.80
2023-01-08T10:00:17.630Z,13.77
2023-01-08T10:02:45.154Z,13.77
2023-01-08T10:05:17.017Z,17.67
2023-01-08T10:07:45.235Z,13.67
2023-01-08T10:10:16.915Z,13.73
2023-01-08T10:12:44.167Z,14.77
2023-01-08T10:15:17.423Z,13.27
2023-01-08T10:18:02.957Z,15.03
2023-01-08T10:20:30.999Z,11.20
2023-01-08T10:23:10.065Z,16.70
2023-01-08T10:25:50.553Z,11.63
2023-01-08T10:28:26.571Z,13.83
2023-01-08T10:30:58.880Z,14.93
2023-01-08T10:33:40.854Z,31.53
2023-01-08T10:36:10.857Z,13.90
2023-01-08T10:38:50.814Z,15.80
2023-01-08T10:41:18.651Z,14.57
2023-01-08T10:43:52.125Z,14.10
2023-01-08T10:46:50.975Z,10.97
2023-01-08T10:49:54.848Z,13.87
2023-01-08T10:52:28.532Z,15.70
2023-01-08T10:54:56.130Z,14.63
2023-01-08T10:57:25.203Z,15.27
2023-01-08T10:59:52.255Z,17.07
2023-01-08T11:02:38.423Z,16.13
2023-01-08T11:05:08.847Z,16.70
2023-01-08T11:07:36.050Z,14.00
2023-01-08T11:10:05.067Z,14.77
2023-01-08T11:12:35.775Z,14.40
2023-01-08T11:15:05.418Z,15.10
2023-01-08T11:17:33.885Z,16.90
2023-01-08T11:20:09.825Z,16.77
2023-01-08T11:22:36.842Z,15.27
2023-01-08T11:25:13.941Z,14.37
2023-01-08T11:27:45.249Z,14.27
2023-01-08T11:30:21.552Z,15.57
2023-01-08T11:33:04.836Z,15.00
2023-01-08T11:35:37.908Z,13.33
2023-01-08T11:38:07.029Z,16.37
2023-01-08T11:40:49.514Z,13.83
2023-01-08T11:43:38.492Z,13.77
2023-01-08T11:46:50.896Z,12.90
2023-01-08T11:49:42.483Z,11.70
2023-01-08T11:52:34.591Z,11.37
2023-01-08T11:55:07.734Z,10.63
2023-01-08T11:58:05.429Z,11.90
2023-01-08T12:00:49.655Z,16.52
2023-01-08T12:03:31.110Z,17.67
2023-01-08T12:06:32.137Z,12.63
2023-01-08T12:09:17.790Z,14.77
2023-01-08T12:11:57.497Z,16.40
2023-01-08T12:14:42.965Z,14.07
2023-01-08T12:17:24.935Z,13.57
2023-01-08T12:20:14.141Z,13.97
2023-01-08T12:22:59.536Z,12.40
2023-01-08T12:25:34.202Z,12.60
2023-01-08T12:28:10.352Z,15.47
2023-01-08T12:31:16.270Z,13.63
2023-01-08T12:33:55.019Z,16.50
2023-01-08T12:36:30.833Z,15.20
2023-01-08T12:39:08.661Z,13.63
2023-01-08T12:41:37.847Z,14.53
2023-01-08T12:44:10.321Z,16.50
2023-01-08T12:46:42.297Z,14.53
2023-01-08T12:49:14.515Z,15.10
2023-01-08T12:51:48.801Z,14.43
2023-01-08T12:54:45.629Z,15.93
2023-01-08T12:57:22.950Z,15.10
2023-01-08T13:00:47.360Z,15.10
2023-01-08T13:03:22.723Z,16.40
2023-01-08T13:05:50.548Z,19.27
2023-01-08T13:08:36.735Z,16.40
2023-01-08T13:11:05.527Z,18.50
2023-01-08T13:13:36.980Z,16.30
2023-01-08T13:16:17.359Z,21.50
2023-01-08T13:19:04.798Z,22.00
2023-01-08T13:21:38.534Z,22.67
2023-01-08T13:24:44.479Z,23.77
2023-01-08T13:27:18.895Z,23.53
2023-01-08T13:29:50.783Z,21.77
2023-01-08T13:32:48.652Z,18.73
2023-01-08T13:35:15.837Z,22.43
2023-01-08T13:37:44.212Z,20.77
2023-01-08T13:40:46.025Z,18.80
2023-01-08T13:43:21.556Z,20.17
2023-01-08T13:46:16.887Z,17.53
2023-01-08T13:49:19.652Z,20.77
2023-01-08T13:51:47.658Z,17.90
2023-01-08T13:54:17.658Z,29.20
2023-01-08T13:56:54.036Z,21.37
2023-01-08T13:59:29.782Z,21.52
2023-01-08T14:01:58.048Z,17.77
2023-01-08T14:04:25.386Z,21.13
2023-01-08T14:06:52.690Z,18.73
2023-01-08T14:09:25.389Z,20.73
2023-01-08T14:11:56.135Z,23.83
2023-01-08T14:14:24.545Z,23.10
2023-01-08T14:16:53.452Z,21.30
2023-01-08T14:19:24.023Z,21.97
2023-01-08T14:21:58.336Z,18.93
2023-01-08T14:24:26.439Z,21.30
2023-01-08T14:26:54.467Z,22.20
2023-01-08T14:29:24.287Z,27.53
2023-01-08T14:31:56.667Z,28.23
2023-01-08T14:34:27.133Z,28.13
2023-01-08T14:36:56.250Z,27.97
2023-01-08T14:39:25.840Z,32.27
2023-01-08T14:42:13.871Z,28.77
2023-01-08T14:44:44.504Z,26.10
2023-01-08T14:47:19.308Z,27.50
2023-01-08T14:49:53.833Z,25.83
2023-01-08T14:52:21.360Z,26.97
2023-01-08T14:55:03.299Z,29.20
2023-01-08T14:57:31.593Z,25.13
2023-01-08T15:00:01.862Z,26.33
2023-01-08T15:02:35.708Z,27.80
2023-01-08T15:05:24.231Z,28.43
2023-01-08T15:08:03.864Z,25.97
2023-01-08T15:10:38.433Z,28.00
2023-01-08T15:13:08.620Z,29.50
2023-01-08T15:15:41.783Z,27.37
2023-01-08T15:18:12.009Z,26.87
2023-01-08T15:20:39.215Z,24.30
2023-01-08T15:23:06.191Z,28.63
2023-01-08T15:25:33.259Z,25.53
2023-01-08T15:28:03.139Z,27.20
2023-01-08T15:30:36.762Z,28.87
2023-01-08T15:33:18.068Z,26.57
2023-01-08T15:35:46.118Z,30.23
2023-01-08T15:38:13.804Z,31.57
2023-01-08T15:40:41.255Z,29.50
2023-01-08T15:43:13.731Z,32.93
2023-01-08T15:45:46.630Z,30.57
2023-01-08T15:48:14.301Z,28.60
2023-01-08T15:50:43.863Z,28.63
2023-01-08T15:53:18.887Z,30.10
2023-01-08T15:55:47.066Z,32.57
2023-01-08T15:58:15.477Z,27.83
2023-01-08T16:00:44.628Z,26.37
2023-01-08T16:03:15.794Z,29.13
2023-01-08T16:05:42.851Z,32.00
2023-01-08T16:08:11.131Z,31.90
2023-01-08T16:10:38.371Z,26.83
2023-01-08T16:13:05.377Z,30.03
2023-01-08T16:15:32.372Z,25.63
2023-01-08T16:17:59.733Z,26.40
2023-01-08T16:20:26.918Z,29.20
2023-01-08T16:22:55.057Z,23.70
2023-01-08T16:25:22.209Z,25.93
2023-01-08T16:27:49.236Z,27.73
2023-01-08T16:30:16.711Z,25.80
2023-01-08T16:32:44.155Z,27.63
2023-01-08T16:35:11.752Z,30.33
2023-01-08T16:37:39.479Z,29.60
2023-01-08T16:40:07.559Z,30.40
2023-01-08T16:42:34.581Z,30.17
2023-01-08T16:45:01.635Z,31.83
2023-01-08T16:47:30.875Z,33.53
2023-01-08T16:49:57.916Z,35.80
2023-01-08T16:52:24.948Z,38.67
2023-01-08T16:54:51.899Z,41.60
2023-01-08T16:57:18.928Z,41.70
2023-01-08T16:59:45.981Z,41.43
2023-01-08T17:02:12.967Z,35.77
2023-01-08T17:04:40.114Z,43.97
2023-01-08T17:07:07.425Z,40.00
2023-01-08T17:09:34.678Z,37.90
2023-01-08T17:12:01.726Z,33.93
2023-01-08T17:14:28.931Z,34.97
2023-01-08T17:16:55.917Z,35.70
2023-01-08T17:19:23.158Z,32.47
2023-01-08T17:21:50.818Z,37.97
2023-01-08T17:24:17.917Z,31.70
2023-01-08T17:26:45.354Z,35.53
2023-01-08T17:29:12.528Z,32.00
2023-01-08T17:31:40.337Z,31.70
2023-01-08T17:34:12.066Z,34.47
2023-01-08T17:36:39.392Z,33.37
2023-01-08T17:39:06.852Z,32.73
2023-01-08T17:41:54.629Z,33.43
2023-01-08T17:44:22.677Z,30.63
2023-01-08T17:46:49.925Z,29.47
2023-01-08T17:49:17.278Z,32.77
2023-01-08T17:51:45.999Z,31.90
2023-01-08T17:54:15.417Z,29.57
2023-01-08T17:56:43.413Z,28.20
2023-01-08T17:59:16.088Z,25.57
2023-01-08T18:01:45.363Z,28.80
2023-01-08T18:04:16.037Z,29.10
2023-01-08T18:06:43.526Z,27.27
2023-01-08T18:09:12.695Z,42.40
2023-01-08T18:11:41.117Z,35.87
2023-01-08T18:14:10.418Z,39.67
2023-01-08T18:16:38.186Z,39.53
2023-01-08T18:19:05.556Z,35.90
2023-01-08T18:21:32.762Z,34.43
2023-01-08T18:23:59.942Z,33.47
2023-01-08T18:26:27.255Z,34.00
2023-01-08T18:28:54.312Z,34.43
2023-01-08T18:31:22.697Z,30.20
2023-01-08T18:33:51.731Z,33.93
2023-01-08T18:36:19.667Z,35.33
2023-01-08T18:38:47.056Z,32.80
2023-01-08T18:41:36.311Z,32.73
2023-01-08T18:44:05.569Z,32.97
2023-01-08T18:46:34.258Z,31.10
2023-01-08T18:49:01.398Z,38.03
2023-01-08T18:51:28.682Z,35.90
2023-01-08T18:53:58.831Z,34.10
2023-01-08T18:56:34.638Z,31.37
2023-01-08T18:59:03.560Z,31.45
2023-01-08T19:01:30.911Z,31.43
2023-01-08T19:03:58.317Z,29.30
2023-01-08T19:06:25.793Z,27.10
2023-01-08T19:08:53.033Z,25.90
2023-01-08T19:11:20.519Z,27.80
2023-01-08T19:13:47.575Z,25.43
2023-01-08T19:16:15.999Z,25.60
2023-01-08T19:18:43.155Z,28.60
2023-01-08T19:21:13.584Z,28.20
2023-01-08T19:23:41.010Z,32.57
2023-01-08T19:26:08.351Z,27.20
2023-01-08T19:28:36.090Z,29.43
2023-01-08T19:31:03.587Z,27.37
2023-01-08T19:33:30.739Z,28.13
2023-01-08T19:36:03.266Z,27.27
2023-01-08T19:38:30.526Z,29.83
2023-01-08T19:41:00.299Z,28.27
2023-01-08T19:43:42.492Z,26.33
2023-01-08T19:46:11.930Z,29.10
2023-01-08T19:48:40.336Z,29.07
2023-01-08T19:51:08.813Z,26.70
2023-01-08T19:53:35.889Z,27.83
2023-01-08T19:56:08.913Z,26.47
2023-01-08T19:58:36.153Z,24.90
2023-01-08T20:01:14.300Z,26.63
2023-01-08T20:03:42.408Z,23.30
2023-01-08T20:06:17.438Z,24.63
2023-01-08T20:08:46.330Z,21.93
2023-01-08T20:11:15.870Z,24.73
2023-01-08T20:13:43.561Z,27.43
2023-01-08T20:16:14.176Z,22.77
2023-01-08T20:18:41.812Z,25.50
2023-01-08T20:21:18.339Z,23.97
2023-01-08T20:23:45.614Z,22.85
2023-01-08T20:26:18.080Z,23.03
2023-01-08T20:28:46.079Z,22.83
2023-01-08T20:31:15.780Z,21.47
2023-01-08T20:33:43.635Z,25.53
2023-01-08T20:36:16.760Z,27.07
2023-01-08T20:38:44.719Z,27.30
2023-01-08T20:41:12.190Z,26.93
2023-01-08T20:43:41.045Z,30.17
2023-01-08T20:46:13.969Z,28.33
2023-01-08T20:48:47.706Z,27.63
2023-01-08T20:51:16.533Z,25.03
2023-01-08T20:53:43.604Z,27.13
2023-01-08T20:56:15.188Z,26.87
2023-01-08T20:58:45.064Z,29.57
2023-01-08T21:01:18.384Z,24.53
2023-01-08T21:03:46.154Z,26.23
2023-01-08T21:06:16.362Z,23.63
2023-01-08T21:08:44.847Z,22.57
2023-01-08T21:11:13.640Z,23.77
2023-01-08T21:13:41.174Z,24.27
2023-01-08T21:16:22.690Z,23.87
2023-01-08T21:18:50.559Z,17.83
2023-01-08T21:21:28.785Z,16.13
2023-01-08T21:23:56.828Z,16.17
2023-01-08T21:26:24.429Z,16.37
2023-01-08T21:28:51.493Z,16.27
2023-01-08T21:31:21.314Z,17.90
2023-01-08T21:33:49.977Z,18.17
2023-01-08T21:36:22.789Z,18.70
2023-01-08T21:38:50.251Z,21.83
2023-01-08T21:41:40.698Z,16.37
2023-01-08T21:44:40.274Z,19.00
2023-01-08T21:47:10.366Z,20.47
2023-01-08T21:49:46.969Z,18.57
2023-01-08T21:52:33.436Z,23.17
2023-01-08T21:55:01.761Z,19.77
2023-01-08T21:57:37.484Z,21.73
2023-01-08T22:00:05.290Z,21.63
2023-01-08T22:02:32.897Z,20.40
2023-01-08T22:04:59.893Z,22.03
2023-01-08T22:07:26.881Z,22.30
2023-01-08T22:09:54.181Z,19.17
2023-01-08T22:12:22.991Z,20.07
2023-01-08T22:14:55.443Z,21.50
2023-01-08T22:17:29.359Z,21.40
2023-01-08T22:19:58.083Z,18.93
2023-01-08T22:22:25.134Z,20.37
2023-01-08T22:24:52.497Z,20.00
2023-01-08T22:27:19.632Z,18.93
2023-01-08T22:29:48.285Z,20.33
2023-01-08T22:32:15.329Z,22.97
2023-01-08T22:34:42.482Z,20.37
2023-01-08T22:37:11.744Z,22.93
2023-01-08T22:39:39.987Z,24.10
2023-01-08T22:42:06.957Z,19.50
2023-01-08T22:44:34.123Z,18.73
2023-01-08T22:47:02.824Z,19.63
2023-01-08T22:49:29.971Z,19.40
2023-01-08T22:51:58.801Z,15.13
2023-01-08T22:54:25.901Z,16.93
2023-01-08T22:56:52.895Z,18.33
2023-01-08T22:59:21.439Z,18.83
2023-01-08T23:01:49.581Z,15.60
2023-01-08T23:04:17.109Z,15.70
2023-01-08T23:06:44.179Z,17.97
2023-01-08T23:09:11.505Z,16.13
2023-01-08T23:11:38.461Z,18.47
2023-01-08T23:14:07.927Z,15.80
2023-01-08T23:16:35.322Z,16.23
2023-01-08T23:19:02.319Z,15.37
2023-01-08T23:21:29.355Z,19.83
2023-01-08T23:23:56.673Z,18.20
2023-01-08T23:26:26.956Z,16.97
2023-01-08T23:28:55.875Z,18.67
2023-01-08T23:31:26.410Z,18.97
2023-01-08T23:33:54.130Z,19.77
2023-01-08T23:36:22.114Z,22.87
2023-01-08T23:38:51.948Z,23.90
2023-01-08T23:41:20.713Z,25.47
2023-01-08T23:43:49.343Z,23.63
2023-01-08T23:46:16.953Z,25.57
2023-01-08T23:48:43.958Z,24.77
2023-01-08T23:51:11.039Z,24.70
2023-01-08T23:53:38.028Z,26.53
2023-01-08T23:56:05.452Z,25.97
2023-01-08T23:58:32.534Z,23.53
